sensor_id;sensor_type;location;lat;lon;timestamp;temperature;humidity
19359;DHT22;9815;52.334;20.890;2024-03-08T00:01:33;-2.20;99.90
19359;DHT22;9815;52.334;20.890;2024-03-08T00:04:02;-2.20;99.90
19359;DHT22;9815;52.334;20.890;2024-03-08T00:06:31;-2.20;99.90
19359;DHT22;9815;52.334;20.890;2024-03-08T00:08:59;-2.20;99.90
19359;DHT22;9815;52.334;20.890;2024-03-08T00:11:31;-2.20;99.90
19359;DHT22;9815;52.334;20.890;2024-03-08T00:13:59;-2.20;99.90
19359;DHT22;9815;52.334;20.890;2024-03-08T00:16:31;-2.20;99.90
19359;DHT22;9815;52.334;20.890;2024-03-08T00:18:59;-2.20;99.90
19359;DHT22;9815;52.334;20.890;2024-03-08T00:21:28;-2.20;99.90
19359;DHT22;9815;52.334;20.890;2024-03-08T00:23:57;-2.30;99.90
19359;DHT22;9815;52.334;20.890;2024-03-08T00:26:26;-2.30;99.90
19359;DHT22;9815;52.334;20.890;2024-03-08T00:28:56;-2.30;99.90
19359;DHT22;9815;52.334;20.890;2024-03-08T00:31:25;-2.30;99.90
19359;DHT22;9815;52.334;20.890;2024-03-08T00:33:57;-2.20;99.90
19359;DHT22;9815;52.334;20.890;2024-03-08T00:36:26;-2.10;99.90
19359;DHT22;9815;52.334;20.890;2024-03-08T00:38:57;-2.20;99.90
19359;DHT22;9815;52.334;20.890;2024-03-08T00:41:28;-2.30;99.90
19359;DHT22;9815;52.334;20.890;2024-03-08T00:43:58;-2.30;99.90
19359;DHT22;9815;52.334;20.890;2024-03-08T00:46:27;-2.40;99.90
19359;DHT22;9815;52.334;20.890;2024-03-08T00:49:00;-2.20;99.90
19359;DHT22;9815;52.334;20.890;2024-03-08T00:51:30;-2.40;99.90
19359;DHT22;9815;52.334;20.890;2024-03-08T00:53:58;-1.30;99.90
19359;DHT22;9815;52.334;20.890;2024-03-08T00:56:27;-2.40;99.90
19359;DHT22;9815;52.334;20.890;2024-03-08T00:58:57;-2.40;99.90
19359;DHT22;9815;52.334;20.890;2024-03-08T01:01:28;-2.40;99.90
19359;DHT22;9815;52.334;20.890;2024-03-08T01:03:57;-2.40;99.90
19359;DHT22;9815;52.334;20.890;2024-03-08T01:06:27;-2.40;99.90
19359;DHT22;9815;52.334;20.890;2024-03-08T01:08:56;-2.40;99.90
19359;DHT22;9815;52.334;20.890;2024-03-08T01:11:25;-2.40;99.90
19359;DHT22;9815;52.334;20.890;2024-03-08T01:13:55;-2.50;99.90
19359;DHT22;9815;52.334;20.890;2024-03-08T01:16:24;-2.50;99.90
19359;DHT22;9815;52.334;20.890;2024-03-08T01:18:53;-2.50;99.90
19359;DHT22;9815;52.334;20.890;2024-03-08T01:21:22;-2.60;99.90
19359;DHT22;9815;52.334;20.890;2024-03-08T01:23:52;-2.60;99.90
19359;DHT22;9815;52.334;20.890;2024-03-08T01:26:21;-2.60;99.90
19359;DHT22;9815;52.334;20.890;2024-03-08T01:28:49;-2.60;99.90
19359;DHT22;9815;52.334;20.890;2024-03-08T01:31:18;-2.70;99.90
19359;DHT22;9815;52.334;20.890;2024-03-08T01:33:47;-2.70;99.90
19359;DHT22;9815;52.334;20.890;2024-03-08T01:36:43;-2.70;99.90
19359;DHT22;9815;52.334;20.890;2024-03-08T01:39:14;-2.60;99.90
19359;DHT22;9815;52.334;20.890;2024-03-08T01:41:43;-2.70;99.90
19359;DHT22;9815;52.334;20.890;2024-03-08T01:44:12;-2.70;99.90
19359;DHT22;9815;52.334;20.890;2024-03-08T01:46:48;-2.70;99.90
19359;DHT22;9815;52.334;20.890;2024-03-08T01:49:21;-2.70;99.90
19359;DHT22;9815;52.334;20.890;2024-03-08T01:51:52;-2.40;99.90
19359;DHT22;9815;52.334;20.890;2024-03-08T01:54:25;-2.60;99.90
19359;DHT22;9815;52.334;20.890;2024-03-08T01:56:54;-2.60;99.90
19359;DHT22;9815;52.334;20.890;2024-03-08T01:59:24;-2.50;99.90
19359;DHT22;9815;52.334;20.890;2024-03-08T02:01:55;-2.40;99.90
19359;DHT22;9815;52.334;20.890;2024-03-08T02:04:29;-2.70;99.90
19359;DHT22;9815;52.334;20.890;2024-03-08T02:06:58;-2.70;99.90
19359;DHT22;9815;52.334;20.890;2024-03-08T02:09:29;-2.80;99.90
19359;DHT22;9815;52.334;20.890;2024-03-08T02:11:57;-2.90;99.90
19359;DHT22;9815;52.334;20.890;2024-03-08T02:14:31;-3.00;99.90
19359;DHT22;9815;52.334;20.890;2024-03-08T02:17:00;-3.00;99.90
19359;DHT22;9815;52.334;20.890;2024-03-08T02:19:29;-3.00;99.90
19359;DHT22;9815;52.334;20.890;2024-03-08T02:21:59;-3.10;99.90
19359;DHT22;9815;52.334;20.890;2024-03-08T02:24:32;-3.10;99.90
19359;DHT22;9815;52.334;20.890;2024-03-08T02:27:00;-2.90;99.90
19359;DHT22;9815;52.334;20.890;2024-03-08T02:29:30;-3.20;99.90
19359;DHT22;9815;52.334;20.890;2024-03-08T02:32:00;-3.20;99.90
19359;DHT22;9815;52.334;20.890;2024-03-08T02:34:31;-3.20;99.90
19359;DHT22;9815;52.334;20.890;2024-03-08T02:37:01;-3.20;99.90
19359;DHT22;9815;52.334;20.890;2024-03-08T02:39:30;-3.00;99.90
19359;DHT22;9815;52.334;20.890;2024-03-08T02:41:59;-3.20;99.90
19359;DHT22;9815;52.334;20.890;2024-03-08T02:44:27;-3.20;99.90
19359;DHT22;9815;52.334;20.890;2024-03-08T02:46:56;-3.20;99.90
19359;DHT22;9815;52.334;20.890;2024-03-08T02:49:25;-3.20;99.90
19359;DHT22;9815;52.334;20.890;2024-03-08T02:51:54;-3.30;99.90
19359;DHT22;9815;52.334;20.890;2024-03-08T02:54:25;-3.30;99.90
19359;DHT22;9815;52.334;20.890;2024-03-08T02:56:54;-3.30;99.90
19359;DHT22;9815;52.334;20.890;2024-03-08T02:59:23;-3.30;99.90
19359;DHT22;9815;52.334;20.890;2024-03-08T03:01:52;-3.30;99.90
19359;DHT22;9815;52.334;20.890;2024-03-08T03:04:20;-3.30;99.90
19359;DHT22;9815;52.334;20.890;2024-03-08T03:06:50;-3.30;99.90
19359;DHT22;9815;52.334;20.890;2024-03-08T03:09:18;-3.20;99.90
19359;DHT22;9815;52.334;20.890;2024-03-08T03:11:52;-3.30;99.90
19359;DHT22;9815;52.334;20.890;2024-03-08T03:14:21;-3.30;99.90
19359;DHT22;9815;52.334;20.890;2024-03-08T03:16:50;-3.20;99.90
19359;DHT22;9815;52.334;20.890;2024-03-08T03:19:18;-3.30;99.90
19359;DHT22;9815;52.334;20.890;2024-03-08T03:21:47;-3.40;99.90
19359;DHT22;9815;52.334;20.890;2024-03-08T03:24:16;-3.30;99.90
19359;DHT22;9815;52.334;20.890;2024-03-08T03:26:45;-3.30;99.90
19359;DHT22;9815;52.334;20.890;2024-03-08T03:29:17;-3.30;99.90
19359;DHT22;9815;52.334;20.890;2024-03-08T03:31:45;-3.40;99.90
19359;DHT22;9815;52.334;20.890;2024-03-08T03:34:14;-3.30;99.90
19359;DHT22;9815;52.334;20.890;2024-03-08T03:36:42;-3.40;99.90
19359;DHT22;9815;52.334;20.890;2024-03-08T03:39:14;-3.40;99.90
19359;DHT22;9815;52.334;20.890;2024-03-08T03:41:47;-3.40;99.90
19359;DHT22;9815;52.334;20.890;2024-03-08T03:44:20;-3.30;99.90
19359;DHT22;9815;52.334;20.890;2024-03-08T03:46:50;-3.30;99.90
19359;DHT22;9815;52.334;20.890;2024-03-08T03:49:19;-3.40;99.90
19359;DHT22;9815;52.334;20.890;2024-03-08T03:51:48;-3.30;99.90
19359;DHT22;9815;52.334;20.890;2024-03-08T03:54:17;-3.30;99.90
19359;DHT22;9815;52.334;20.890;2024-03-08T03:56:46;-3.20;99.90
19359;DHT22;9815;52.334;20.890;2024-03-08T03:59:19;-3.40;99.90
19359;DHT22;9815;52.334;20.890;2024-03-08T04:01:48;-3.40;99.90
19359;DHT22;9815;52.334;20.890;2024-03-08T04:04:17;-3.40;99.90
19359;DHT22;9815;52.334;20.890;2024-03-08T04:06:46;-3.40;99.90
19359;DHT22;9815;52.334;20.890;2024-03-08T04:09:14;-3.40;99.90
19359;DHT22;9815;52.334;20.890;2024-03-08T04:11:46;-3.50;99.90
19359;DHT22;9815;52.334;20.890;2024-03-08T04:14:15;-3.50;99.90
19359;DHT22;9815;52.334;20.890;2024-03-08T04:17:11;-3.50;99.90
19359;DHT22;9815;52.334;20.890;2024-03-08T04:19:43;-3.60;99.90
19359;DHT22;9815;52.334;20.890;2024-03-08T04:22:12;-3.60;99.90
19359;DHT22;9815;52.334;20.890;2024-03-08T04:24:40;-3.60;99.90
19359;DHT22;9815;52.334;20.890;2024-03-08T04:27:09;-3.60;99.90
19359;DHT22;9815;52.334;20.890;2024-03-08T04:29:37;-3.60;99.90
19359;DHT22;9815;52.334;20.890;2024-03-08T04:32:10;-3.60;99.90
19359;DHT22;9815;52.334;20.890;2024-03-08T04:34:40;-3.60;99.90
19359;DHT22;9815;52.334;20.890;2024-03-08T04:37:12;-3.70;99.90
19359;DHT22;9815;52.334;20.890;2024-03-08T04:39:42;-2.50;99.90
19359;DHT22;9815;52.334;20.890;2024-03-08T04:42:10;-3.80;99.90
19359;DHT22;9815;52.334;20.890;2024-03-08T04:44:39;-3.80;99.90
19359;DHT22;9815;52.334;20.890;2024-03-08T04:47:09;-3.80;99.90
19359;DHT22;9815;52.334;20.890;2024-03-08T04:49:38;-3.90;99.90
19359;DHT22;9815;52.334;20.890;2024-03-08T04:52:07;-3.90;99.90
19359;DHT22;9815;52.334;20.890;2024-03-08T04:54:36;-3.90;99.90
19359;DHT22;9815;52.334;20.890;2024-03-08T04:57:07;-4.00;99.90
19359;DHT22;9815;52.334;20.890;2024-03-08T04:59:36;-4.00;99.90
19359;DHT22;9815;52.334;20.890;2024-03-08T05:02:05;-4.00;99.90
19359;DHT22;9815;52.334;20.890;2024-03-08T05:04:36;-3.90;99.90
19359;DHT22;9815;52.334;20.890;2024-03-08T05:07:05;-4.10;99.90
19359;DHT22;9815;52.334;20.890;2024-03-08T05:09:34;-4.10;99.90
19359;DHT22;9815;52.334;20.890;2024-03-08T05:12:04;-4.10;99.90
19359;DHT22;9815;52.334;20.890;2024-03-08T05:14:33;-4.10;99.90
19359;DHT22;9815;52.334;20.890;2024-03-08T05:17:02;-4.00;99.90
19359;DHT22;9815;52.334;20.890;2024-03-08T05:19:35;-4.10;99.90
19359;DHT22;9815;52.334;20.890;2024-03-08T05:22:04;-4.00;99.90
19359;DHT22;9815;52.334;20.890;2024-03-08T05:24:33;-4.00;99.90
19359;DHT22;9815;52.334;20.890;2024-03-08T05:27:05;-4.00;99.90
19359;DHT22;9815;52.334;20.890;2024-03-08T05:29:33;-4.00;99.90
19359;DHT22;9815;52.334;20.890;2024-03-08T05:32:02;-4.00;99.90
19359;DHT22;9815;52.334;20.890;2024-03-08T05:34:31;-4.00;99.90
19359;DHT22;9815;52.334;20.890;2024-03-08T05:37:01;-3.90;99.90
19359;DHT22;9815;52.334;20.890;2024-03-08T05:39:32;-3.90;99.90
19359;DHT22;9815;52.334;20.890;2024-03-08T05:42:01;-3.90;99.90
19359;DHT22;9815;52.334;20.890;2024-03-08T05:44:30;-3.80;99.90
19359;DHT22;9815;52.334;20.890;2024-03-08T05:46:59;-3.80;99.90
19359;DHT22;9815;52.334;20.890;2024-03-08T05:49:27;-3.60;99.90
19359;DHT22;9815;52.334;20.890;2024-03-08T05:51:56;-3.70;99.90
19359;DHT22;9815;52.334;20.890;2024-03-08T05:54:28;-3.60;99.90
19359;DHT22;9815;52.334;20.890;2024-03-08T05:56:58;-3.60;99.90
19359;DHT22;9815;52.334;20.890;2024-03-08T05:59:28;-3.50;99.90
19359;DHT22;9815;52.334;20.890;2024-03-08T06:01:57;-3.50;99.90
19359;DHT22;9815;52.334;20.890;2024-03-08T06:04:26;-3.40;99.90
19359;DHT22;9815;52.334;20.890;2024-03-08T06:06:56;-3.30;99.90
19359;DHT22;9815;52.334;20.890;2024-03-08T06:09:25;-3.30;99.90
19359;DHT22;9815;52.334;20.890;2024-03-08T06:11:55;-3.20;99.90
19359;DHT22;9815;52.334;20.890;2024-03-08T06:14:24;-3.20;99.90
19359;DHT22;9815;52.334;20.890;2024-03-08T06:16:53;-3.10;99.90
19359;DHT22;9815;52.334;20.890;2024-03-08T06:19:21;-3.00;99.90
19359;DHT22;9815;52.334;20.890;2024-03-08T06:21:50;-3.00;99.90
19359;DHT22;9815;52.334;20.890;2024-03-08T06:24:18;-2.90;99.90
19359;DHT22;9815;52.334;20.890;2024-03-08T06:26:47;-2.80;99.90
19359;DHT22;9815;52.334;20.890;2024-03-08T06:29:17;-2.70;99.90
19359;DHT22;9815;52.334;20.890;2024-03-08T06:31:46;-2.60;99.90
19359;DHT22;9815;52.334;20.890;2024-03-08T06:34:14;-2.40;99.90
19359;DHT22;9815;52.334;20.890;2024-03-08T06:36:45;-2.20;99.90
19359;DHT22;9815;52.334;20.890;2024-03-08T06:39:19;-2.00;99.90
19359;DHT22;9815;52.334;20.890;2024-03-08T06:41:52;-1.70;99.90
19359;DHT22;9815;52.334;20.890;2024-03-08T06:44:22;-1.60;99.90
19359;DHT22;9815;52.334;20.890;2024-03-08T06:46:51;-1.40;99.90
19359;DHT22;9815;52.334;20.890;2024-03-08T06:49:20;-1.20;99.90
19359;DHT22;9815;52.334;20.890;2024-03-08T06:51:49;-1.10;99.90
19359;DHT22;9815;52.334;20.890;2024-03-08T06:54:18;-0.60;99.90
19359;DHT22;9815;52.334;20.890;2024-03-08T06:56:47;-0.60;99.90
19359;DHT22;9815;52.334;20.890;2024-03-08T06:59:16;-0.40;99.90
19359;DHT22;9815;52.334;20.890;2024-03-08T07:01:47;-0.30;99.90
19359;DHT22;9815;52.334;20.890;2024-03-08T07:04:15;-0.10;99.90
19359;DHT22;9815;52.334;20.890;2024-03-08T07:06:44;0.00;99.90
19359;DHT22;9815;52.334;20.890;2024-03-08T07:09:12;0.10;99.90
19359;DHT22;9815;52.334;20.890;2024-03-08T07:11:44;0.30;99.90
19359;DHT22;9815;52.334;20.890;2024-03-08T07:14:14;0.40;99.90
19359;DHT22;9815;52.334;20.890;2024-03-08T07:16:43;0.50;99.90
19359;DHT22;9815;52.334;20.890;2024-03-08T07:19:13;0.50;99.90
19359;DHT22;9815;52.334;20.890;2024-03-08T07:21:42;0.80;99.90
19359;DHT22;9815;52.334;20.890;2024-03-08T07:24:11;0.80;99.90
19359;DHT22;9815;52.334;20.890;2024-03-08T07:27:07;0.90;99.90
19359;DHT22;9815;52.334;20.890;2024-03-08T07:29:36;1.10;99.90
19359;DHT22;9815;52.334;20.890;2024-03-08T07:32:05;1.30;99.90
19359;DHT22;9815;52.334;20.890;2024-03-08T07:34:49;1.40;99.90
19359;DHT22;9815;52.334;20.890;2024-03-08T07:37:18;1.60;99.90
19359;DHT22;9815;52.334;20.890;2024-03-08T07:39:47;1.70;99.90
19359;DHT22;9815;52.334;20.890;2024-03-08T07:42:16;1.80;99.90
19359;DHT22;9815;52.334;20.890;2024-03-08T07:44:45;2.00;99.90
19359;DHT22;9815;52.334;20.890;2024-03-08T07:47:15;2.10;99.90
19359;DHT22;9815;52.334;20.890;2024-03-08T07:49:49;2.20;99.90
19359;DHT22;9815;52.334;20.890;2024-03-08T07:52:18;2.40;99.90
19359;DHT22;9815;52.334;20.890;2024-03-08T07:54:46;2.50;99.90
19359;DHT22;9815;52.334;20.890;2024-03-08T07:57:16;2.70;99.90
19359;DHT22;9815;52.334;20.890;2024-03-08T07:59:45;2.90;99.90
19359;DHT22;9815;52.334;20.890;2024-03-08T08:02:14;3.00;99.90
19359;DHT22;9815;52.334;20.890;2024-03-08T08:07:49;3.40;99.90
19359;DHT22;9815;52.334;20.890;2024-03-08T08:10:43;3.60;99.90
19359;DHT22;9815;52.334;20.890;2024-03-08T08:13:12;3.70;99.90
19359;DHT22;9815;52.334;20.890;2024-03-08T08:15:40;3.80;99.90
19359;DHT22;9815;52.334;20.890;2024-03-08T08:18:08;3.90;99.90
19359;DHT22;9815;52.334;20.890;2024-03-08T08:20:37;4.10;99.90
19359;DHT22;9815;52.334;20.890;2024-03-08T08:23:06;4.20;93.80
19359;DHT22;9815;52.334;20.890;2024-03-08T08:25:35;4.30;98.50
19359;DHT22;9815;52.334;20.890;2024-03-08T08:28:05;4.50;90.50
19359;DHT22;9815;52.334;20.890;2024-03-08T08:30:33;4.50;89.20
19359;DHT22;9815;52.334;20.890;2024-03-08T08:33:01;4.70;80.90
19359;DHT22;9815;52.334;20.890;2024-03-08T08:35:32;4.80;72.50
19359;DHT22;9815;52.334;20.890;2024-03-08T08:38:00;4.90;69.80
19359;DHT22;9815;52.334;20.890;2024-03-08T08:40:32;5.10;67.60
19359;DHT22;9815;52.334;20.890;2024-03-08T08:43:00;5.30;63.30
19359;DHT22;9815;52.334;20.890;2024-03-08T08:45:31;5.50;57.50
19359;DHT22;9815;52.334;20.890;2024-03-08T08:48:00;5.40;59.00
19359;DHT22;9815;52.334;20.890;2024-03-08T08:50:28;5.60;44.00
19359;DHT22;9815;52.334;20.890;2024-03-08T08:52:56;5.80;37.40
19359;DHT22;9815;52.334;20.890;2024-03-08T08:55:25;6.00;40.70
19359;DHT22;9815;52.334;20.890;2024-03-08T08:57:55;6.00;35.10
19359;DHT22;9815;52.334;20.890;2024-03-08T09:00:23;6.30;32.30
19359;DHT22;9815;52.334;20.890;2024-03-08T09:02:55;6.30;31.90
19359;DHT22;9815;52.334;20.890;2024-03-08T09:05:25;6.40;31.30
19359;DHT22;9815;52.334;20.890;2024-03-08T09:07:54;6.70;30.20
19359;DHT22;9815;52.334;20.890;2024-03-08T09:10:22;6.80;26.90
19359;DHT22;9815;52.334;20.890;2024-03-08T09:12:58;6.80;24.30
19359;DHT22;9815;52.334;20.890;2024-03-08T09:15:27;6.80;25.60
19359;DHT22;9815;52.334;20.890;2024-03-08T09:17:56;7.00;25.30
19359;DHT22;9815;52.334;20.890;2024-03-08T09:20:24;7.30;23.70
19359;DHT22;9815;52.334;20.890;2024-03-08T09:22:53;7.40;24.80
19359;DHT22;9815;52.334;20.890;2024-03-08T09:25:22;7.40;24.50
19359;DHT22;9815;52.334;20.890;2024-03-08T09:27:50;7.50;23.50
19359;DHT22;9815;52.334;20.890;2024-03-08T09:30:20;7.60;22.10
19359;DHT22;9815;52.334;20.890;2024-03-08T09:32:48;7.80;22.50
19359;DHT22;9815;52.334;20.890;2024-03-08T09:35:18;7.70;20.40
19359;DHT22;9815;52.334;20.890;2024-03-08T09:37:47;7.70;19.80
19359;DHT22;9815;52.334;20.890;2024-03-08T09:40:18;7.80;18.70
19359;DHT22;9815;52.334;20.890;2024-03-08T09:42:48;8.10;19.00
19359;DHT22;9815;52.334;20.890;2024-03-08T09:45:17;8.20;19.60
19359;DHT22;9815;52.334;20.890;2024-03-08T09:47:47;8.20;18.00
19359;DHT22;9815;52.334;20.890;2024-03-08T09:50:15;8.20;18.70
19359;DHT22;9815;52.334;20.890;2024-03-08T09:52:47;8.40;17.60
19359;DHT22;9815;52.334;20.890;2024-03-08T09:55:16;8.40;17.40
19359;DHT22;9815;52.334;20.890;2024-03-08T09:57:50;8.60;16.50
19359;DHT22;9815;52.334;20.890;2024-03-08T10:00:33;9.00;16.20
19359;DHT22;9815;52.334;20.890;2024-03-08T10:03:03;9.40;14.70
19359;DHT22;9815;52.334;20.890;2024-03-08T10:05:32;9.70;14.30
19359;DHT22;9815;52.334;20.890;2024-03-08T10:08:00;9.80;12.70
19359;DHT22;9815;52.334;20.890;2024-03-08T10:10:29;9.70;12.80
19359;DHT22;9815;52.334;20.890;2024-03-08T10:12:58;9.70;12.90
19359;DHT22;9815;52.334;20.890;2024-03-08T10:15:27;9.50;14.00
19359;DHT22;9815;52.334;20.890;2024-03-08T10:17:56;9.20;13.80
19359;DHT22;9815;52.334;20.890;2024-03-08T10:20:26;9.20;14.40
19359;DHT22;9815;52.334;20.890;2024-03-08T10:22:55;9.40;13.60
19359;DHT22;9815;52.334;20.890;2024-03-08T10:25:36;9.60;13.00
19359;DHT22;9815;52.334;20.890;2024-03-08T10:28:05;9.60;13.30
19359;DHT22;9815;52.334;20.890;2024-03-08T10:30:33;9.70;12.50
19359;DHT22;9815;52.334;20.890;2024-03-08T10:33:01;9.80;12.00
19359;DHT22;9815;52.334;20.890;2024-03-08T10:35:34;9.50;13.40
19359;DHT22;9815;52.334;20.890;2024-03-08T10:38:03;9.90;13.50
19359;DHT22;9815;52.334;20.890;2024-03-08T10:40:35;9.90;12.90
19359;DHT22;9815;52.334;20.890;2024-03-08T10:43:12;10.00;11.80
19359;DHT22;9815;52.334;20.890;2024-03-08T10:45:47;9.90;11.90
19359;DHT22;9815;52.334;20.890;2024-03-08T10:48:27;10.10;11.40
19359;DHT22;9815;52.334;20.890;2024-03-08T10:51:05;10.20;11.50
19359;DHT22;9815;52.334;20.890;2024-03-08T10:53:36;10.30;11.20
19359;DHT22;9815;52.334;20.890;2024-03-08T10:56:08;10.50;11.00
19359;DHT22;9815;52.334;20.890;2024-03-08T10:58:38;10.50;10.40
19359;DHT22;9815;52.334;20.890;2024-03-08T11:01:06;10.40;10.10
19359;DHT22;9815;52.334;20.890;2024-03-08T11:03:47;10.60;9.80
19359;DHT22;9815;52.334;20.890;2024-03-08T11:06:30;10.70;10.50
19359;DHT22;9815;52.334;20.890;2024-03-08T11:08:59;10.80;9.90
19359;DHT22;9815;52.334;20.890;2024-03-08T11:11:30;10.90;9.60
19359;DHT22;9815;52.334;20.890;2024-03-08T11:14:01;10.70;9.40
19359;DHT22;9815;52.334;20.890;2024-03-08T11:16:39;10.70;9.20
19359;DHT22;9815;52.334;20.890;2024-03-08T11:19:26;10.70;8.60
19359;DHT22;9815;52.334;20.890;2024-03-08T11:22:01;10.50;9.30
19359;DHT22;9815;52.334;20.890;2024-03-08T11:24:37;10.40;9.40
19359;DHT22;9815;52.334;20.890;2024-03-08T11:27:06;10.70;9.20
19359;DHT22;9815;52.334;20.890;2024-03-08T11:29:37;10.60;8.40
19359;DHT22;9815;52.334;20.890;2024-03-08T11:32:12;10.50;8.40
19359;DHT22;9815;52.334;20.890;2024-03-08T11:34:41;11.10;7.90
19359;DHT22;9815;52.334;20.890;2024-03-08T11:37:14;11.10;7.00
19359;DHT22;9815;52.334;20.890;2024-03-08T11:39:50;11.20;8.00
19359;DHT22;9815;52.334;20.890;2024-03-08T11:42:19;11.60;6.70
19359;DHT22;9815;52.334;20.890;2024-03-08T11:44:48;11.70;6.50
19359;DHT22;9815;52.334;20.890;2024-03-08T11:47:16;11.90;6.60
19359;DHT22;9815;52.334;20.890;2024-03-08T11:49:44;12.30;5.90
19359;DHT22;9815;52.334;20.890;2024-03-08T11:52:17;11.90;5.70
19359;DHT22;9815;52.334;20.890;2024-03-08T11:54:53;11.90;6.70
19359;DHT22;9815;52.334;20.890;2024-03-08T11:57:25;11.60;6.50
19359;DHT22;9815;52.334;20.890;2024-03-08T11:59:56;11.50;6.60
19359;DHT22;9815;52.334;20.890;2024-03-08T12:02:25;11.60;8.20
19359;DHT22;9815;52.334;20.890;2024-03-08T12:04:58;11.70;7.40
19359;DHT22;9815;52.334;20.890;2024-03-08T12:07:28;11.40;5.80
19359;DHT22;9815;52.334;20.890;2024-03-08T12:10:18;11.50;6.20
19359;DHT22;9815;52.334;20.890;2024-03-08T12:12:49;11.60;6.50
19359;DHT22;9815;52.334;20.890;2024-03-08T12:15:19;11.60;5.60
19359;DHT22;9815;52.334;20.890;2024-03-08T12:17:49;11.80;5.40
19359;DHT22;9815;52.334;20.890;2024-03-08T12:20:21;11.80;5.40
19359;DHT22;9815;52.334;20.890;2024-03-08T12:22:52;11.70;5.00
19359;DHT22;9815;52.334;20.890;2024-03-08T12:25:26;11.80;4.40
19359;DHT22;9815;52.334;20.890;2024-03-08T12:27:54;12.00;4.50
19359;DHT22;9815;52.334;20.890;2024-03-08T12:30:26;12.10;4.70
19359;DHT22;9815;52.334;20.890;2024-03-08T12:32:56;11.80;4.90
19359;DHT22;9815;52.334;20.890;2024-03-08T12:35:26;11.90;5.60
19359;DHT22;9815;52.334;20.890;2024-03-08T12:37:56;12.10;4.40
19359;DHT22;9815;52.334;20.890;2024-03-08T12:40:26;12.10;4.00
19359;DHT22;9815;52.334;20.890;2024-03-08T12:42:55;11.70;3.90
19359;DHT22;9815;52.334;20.890;2024-03-08T12:45:24;11.60;3.80
19359;DHT22;9815;52.334;20.890;2024-03-08T12:47:52;11.80;2.90
19359;DHT22;9815;52.334;20.890;2024-03-08T12:50:21;12.00;3.50
19359;DHT22;9815;52.334;20.890;2024-03-08T12:52:50;11.90;3.50
19359;DHT22;9815;52.334;20.890;2024-03-08T12:55:21;11.80;4.30
19359;DHT22;9815;52.334;20.890;2024-03-08T12:57:50;11.80;3.40
19359;DHT22;9815;52.334;20.890;2024-03-08T13:00:20;11.80;4.60
19359;DHT22;9815;52.334;20.890;2024-03-08T13:02:50;11.90;4.00
19359;DHT22;9815;52.334;20.890;2024-03-08T13:05:19;12.10;3.40
19359;DHT22;9815;52.334;20.890;2024-03-08T13:07:47;12.10;2.60
19359;DHT22;9815;52.334;20.890;2024-03-08T13:10:16;12.30;2.70
19359;DHT22;9815;52.334;20.890;2024-03-08T13:12:48;12.50;2.20
19359;DHT22;9815;52.334;20.890;2024-03-08T13:15:20;12.30;2.20
19359;DHT22;9815;52.334;20.890;2024-03-08T13:17:49;12.20;3.20
19359;DHT22;9815;52.334;20.890;2024-03-08T13:20:18;12.10;2.20
19359;DHT22;9815;52.334;20.890;2024-03-08T13:22:57;11.90;2.60
19359;DHT22;9815;52.334;20.890;2024-03-08T13:25:28;12.00;3.50
19359;DHT22;9815;52.334;20.890;2024-03-08T13:27:58;12.00;3.60
19359;DHT22;9815;52.334;20.890;2024-03-08T13:30:28;11.90;3.20
19359;DHT22;9815;52.334;20.890;2024-03-08T13:32:57;12.10;2.50
19359;DHT22;9815;52.334;20.890;2024-03-08T13:35:26;11.90;3.30
19359;DHT22;9815;52.334;20.890;2024-03-08T13:37:57;11.70;5.20
19359;DHT22;9815;52.334;20.890;2024-03-08T13:40:26;11.50;5.70
19359;DHT22;9815;52.334;20.890;2024-03-08T13:42:54;11.40;6.10
19359;DHT22;9815;52.334;20.890;2024-03-08T13:45:24;11.10;8.10
19359;DHT22;9815;52.334;20.890;2024-03-08T13:47:53;11.10;7.10
19359;DHT22;9815;52.334;20.890;2024-03-08T13:50:22;10.90;6.60
19359;DHT22;9815;52.334;20.890;2024-03-08T13:52:52;10.80;7.00
19359;DHT22;9815;52.334;20.890;2024-03-08T13:55:23;10.80;7.00
19359;DHT22;9815;52.334;20.890;2024-03-08T13:57:53;10.80;6.70
19359;DHT22;9815;52.334;20.890;2024-03-08T14:00:21;10.90;7.30
19359;DHT22;9815;52.334;20.890;2024-03-08T14:02:53;10.60;7.40
19359;DHT22;9815;52.334;20.890;2024-03-08T14:05:21;10.30;9.20
19359;DHT22;9815;52.334;20.890;2024-03-08T14:07:50;10.20;9.70
19359;DHT22;9815;52.334;20.890;2024-03-08T14:10:21;10.20;8.90
19359;DHT22;9815;52.334;20.890;2024-03-08T14:12:50;9.90;9.10
19359;DHT22;9815;52.334;20.890;2024-03-08T14:15:19;10.10;9.60
19359;DHT22;9815;52.334;20.890;2024-03-08T14:17:54;10.10;9.10
19359;DHT22;9815;52.334;20.890;2024-03-08T14:20:22;10.00;9.00
19359;DHT22;9815;52.334;20.890;2024-03-08T14:22:53;9.90;9.20
19359;DHT22;9815;52.334;20.890;2024-03-08T14:25:22;10.00;8.80
19359;DHT22;9815;52.334;20.890;2024-03-08T14:27:53;9.90;8.30
19359;DHT22;9815;52.334;20.890;2024-03-08T14:30:25;9.70;9.40
19359;DHT22;9815;52.334;20.890;2024-03-08T14:33:04;9.60;8.50
19359;DHT22;9815;52.334;20.890;2024-03-08T14:35:36;9.50;9.30
19359;DHT22;9815;52.334;20.890;2024-03-08T14:38:05;9.40;9.10
19359;DHT22;9815;52.334;20.890;2024-03-08T14:40:35;9.30;9.90
19359;DHT22;9815;52.334;20.890;2024-03-08T14:43:05;9.20;9.60
19359;DHT22;9815;52.334;20.890;2024-03-08T14:45:33;9.30;9.80
19359;DHT22;9815;52.334;20.890;2024-03-08T14:48:04;9.30;8.50
19359;DHT22;9815;52.334;20.890;2024-03-08T14:50:32;9.10;10.00
19359;DHT22;9815;52.334;20.890;2024-03-08T14:53:04;8.80;10.20
19359;DHT22;9815;52.334;20.890;2024-03-08T14:55:34;8.60;11.20
19359;DHT22;9815;52.334;20.890;2024-03-08T14:58:02;8.60;11.50
19359;DHT22;9815;52.334;20.890;2024-03-08T15:00:31;8.60;12.00
19359;DHT22;9815;52.334;20.890;2024-03-08T15:03:04;8.50;12.70
19359;DHT22;9815;52.334;20.890;2024-03-08T15:05:34;8.30;12.20
19359;DHT22;9815;52.334;20.890;2024-03-08T15:08:06;8.30;12.60
19359;DHT22;9815;52.334;20.890;2024-03-08T15:10:39;8.20;12.80
19359;DHT22;9815;52.334;20.890;2024-03-08T15:13:09;8.10;12.30
19359;DHT22;9815;52.334;20.890;2024-03-08T15:15:49;8.10;13.20
19359;DHT22;9815;52.334;20.890;2024-03-08T15:18:25;8.00;13.10
19359;DHT22;9815;52.334;20.890;2024-03-08T15:20:57;8.00;14.00
19359;DHT22;9815;52.334;20.890;2024-03-08T15:23:26;7.90;14.20
19359;DHT22;9815;52.334;20.890;2024-03-08T15:25:54;8.00;13.30
19359;DHT22;9815;52.334;20.890;2024-03-08T15:28:24;7.80;12.50
19359;DHT22;9815;52.334;20.890;2024-03-08T15:31:01;7.80;13.30
19359;DHT22;9815;52.334;20.890;2024-03-08T15:33:34;7.70;14.00
19359;DHT22;9815;52.334;20.890;2024-03-08T15:36:08;7.50;13.90
19359;DHT22;9815;52.334;20.890;2024-03-08T15:38:38;7.50;14.90
19359;DHT22;9815;52.334;20.890;2024-03-08T15:41:06;7.40;14.90
19359;DHT22;9815;52.334;20.890;2024-03-08T15:43:37;7.30;14.70
19359;DHT22;9815;52.334;20.890;2024-03-08T15:46:07;7.30;15.10
19359;DHT22;9815;52.334;20.890;2024-03-08T15:48:38;7.10;15.90
19359;DHT22;9815;52.334;20.890;2024-03-08T15:51:09;7.10;16.90
19359;DHT22;9815;52.334;20.890;2024-03-08T15:53:38;7.00;16.50
19359;DHT22;9815;52.334;20.890;2024-03-08T15:56:06;6.90;16.70
19359;DHT22;9815;52.334;20.890;2024-03-08T15:58:35;6.80;17.20
19359;DHT22;9815;52.334;20.890;2024-03-08T16:01:04;6.80;17.20
19359;DHT22;9815;52.334;20.890;2024-03-08T16:03:34;6.70;17.30